Time;durP1;ratioP1;P1;durP2;ratioP2;P2;SDS_P1;SDS_P2;PMS_P1;PMS_P2;Temp;Humidity;BMP_temperature;BMP_pressure;BME280_temperature;BME280_humidity;BME280_pressure;Samples;Min_cycle;Max_cycle;Signal;HPM_P1;HPM_P2
2023/01/01 00:00:55;;;;;;;;;3.67;3.67;;;;;15.83;46.02;100875.59;5028638;28;45693;-69
2023/01/01 00:03:20;;;;;;;;;4.00;4.00;;;;;15.74;46.16;100861.13;5026589;28;45384;-69
2023/01/01 00:05:46;;;;;;;;;4.33;4.33;;;;;15.81;46.55;100871.13;5032565;28;45269;-70
2023/01/01 00:08:11;;;;;;;;;6.67;6.67;;;;;15.76;46.21;100862.09;5025919;28;45549;-68
2023/01/01 00:10:36;;;;;;;;;4.00;4.00;;;;;15.64;46.45;100844.00;5033216;28;45559;-69
2023/01/01 00:13:02;;;;;;;;;7.67;6.33;;;;;15.79;46.82;100857.63;5006155;28;45537;-68
2023/01/01 00:15:27;;;;;;;;;3.67;3.67;;;;;15.80;46.73;100872.00;5022634;28;45229;-68
2023/01/01 00:17:53;;;;;;;;;6.00;5.00;;;;;15.79;47.02;100872.91;5029103;28;45336;-69
2023/01/01 00:20:19;;;;;;;;;9.33;7.67;;;;;15.63;47.75;100850.31;5026797;28;45299;-69
2023/01/01 00:22:44;;;;;;;;;5.67;5.67;;;;;15.76;47.21;100870.19;5023831;28;45503;-67
2023/01/01 00:25:14;;;;;;;;;5.33;4.67;;;;;15.65;47.67;100846.72;5027071;28;45516;-67
2023/01/01 00:27:40;;;;;;;;;4.67;3.00;;;;;15.61;47.86;100838.63;5023217;28;47496;-68
2023/01/01 00:30:07;;;;;;;;;5.00;5.00;;;;;15.75;47.71;100871.91;5025765;28;45444;-67
2023/01/01 00:32:32;;;;;;;;;3.33;3.33;;;;;15.62;48.05;100852.09;5022108;28;45411;-69
2023/01/01 00:34:58;;;;;;;;;3.00;3.00;;;;;15.74;47.87;100882.69;5028361;28;45572;-68
2023/01/01 00:37:23;;;;;;;;;5.00;4.33;;;;;15.74;48.23;100862.06;5026894;28;45668;-69
2023/01/01 00:39:49;;;;;;;;;4.67;4.33;;;;;15.41;48.09;100809.75;5028378;28;45392;-69
2023/01/01 00:42:15;;;;;;;;;7.00;7.00;;;;;15.74;48.13;100871.91;5030677;28;45329;-68
2023/01/01 00:44:40;;;;;;;;;5.67;4.00;;;;;15.72;48.30;100863.81;5028837;28;45439;-67
2023/01/01 00:47:05;;;;;;;;;5.33;5.33;;;;;15.73;48.60;100878.22;5033566;28;46510;-67
2023/01/01 00:49:31;;;;;;;;;4.67;4.33;;;;;15.73;48.25;100862.94;5031411;28;45498;-68
2023/01/01 00:51:56;;;;;;;;;6.67;5.00;;;;;15.73;48.57;100878.22;5029543;28;45470;-68
2023/01/01 00:54:21;;;;;;;;;6.00;4.33;;;;;15.72;48.42;100865.63;5027407;28;45587;-68
2023/01/01 00:56:47;;;;;;;;;7.67;6.67;;;;;15.66;48.46;100864.69;5028356;28;47342;-69
2023/01/01 00:59:12;;;;;;;;;5.67;4.67;;;;;15.73;48.57;100862.94;5024059;28;45370;-69
2023/01/01 01:01:39;;;;;;;;;7.33;5.67;;;;;15.73;48.62;100865.63;5030122;28;45288;-68
2023/01/01 01:04:06;;;;;;;;;11.00;7.00;;;;;15.55;48.61;100828.69;5022524;28;45535;-69
2023/01/01 01:06:32;;;;;;;;;4.33;3.33;;;;;15.73;49.11;100857.56;5025362;28;45417;-68
2023/01/01 01:08:58;;;;;;;;;5.33;5.33;;;;;15.69;49.13;100850.34;5002124;28;45935;-68
2023/01/01 01:11:24;;;;;;;;;6.67;6.33;;;;;15.69;49.62;100858.44;5025104;28;45304;-67
2023/01/01 01:13:55;;;;;;;;;4.00;3.67;;;;;15.70;49.56;100859.31;5016766;28;45620;-67
2023/01/01 01:16:29;;;;;;;;;8.00;5.33;;;;;15.74;49.35;100877.28;5010469;28;46388;-67
2023/01/01 01:18:58;;;;;;;;;7.00;6.67;;;;;15.70;49.54;100876.38;5027852;28;45475;-68
2023/01/01 01:21:25;;;;;;;;;6.00;5.00;;;;;15.63;50.01;100859.28;5035960;28;45462;-69
2023/01/01 01:23:51;;;;;;;;;5.33;4.33;;;;;15.68;49.84;100878.16;5024057;28;45519;-69
2023/01/01 01:26:19;;;;;;;;;4.33;4.00;;;;;15.55;49.86;100852.94;5030462;28;45424;-69
2023/01/01 01:28:45;;;;;;;;;7.67;6.00;;;;;15.69;49.94;100870.97;5020894;28;45423;-69
2023/01/01 01:31:11;;;;;;;;;7.00;5.00;;;;;15.59;50.06;100856.53;5027389;28;45426;-70
2023/01/01 01:33:37;;;;;;;;;4.33;3.33;;;;;15.69;50.35;100884.44;5030490;28;45515;-70
2023/01/01 01:36:04;;;;;;;;;7.00;6.00;;;;;15.64;50.95;100879.94;5024610;28;46100;-70
2023/01/01 01:38:31;;;;;;;;;4.67;4.67;;;;;15.54;51.08;100858.31;5030511;28;45467;-69
2023/01/01 01:40:56;;;;;;;;;4.67;4.67;;;;;15.63;50.83;100885.31;5032715;28;45521;-69
2023/01/01 01:43:32;;;;;;;;;6.00;4.67;;;;;15.64;51.04;100892.47;5033545;28;45419;-70
2023/01/01 01:46:07;;;;;;;;;5.33;5.33;;;;;15.59;51.32;100888.84;5033201;28;45483;-70
2023/01/01 01:48:38;;;;;;;;;11.33;7.67;;;;;15.57;51.46;100894.22;5033088;28;45476;-69
2023/01/01 01:51:04;;;;;;;;;9.00;7.67;;;;;15.59;51.32;100902.31;5033077;28;45473;-70
2023/01/01 01:53:34;;;;;;;;;6.00;6.00;;;;;15.46;51.53;100871.72;5032503;28;45369;-70
2023/01/01 01:56:03;;;;;;;;;7.00;4.67;;;;;15.65;51.36;100913.16;5030289;28;46671;-68
2023/01/01 01:58:30;;;;;;;;;7.00;7.00;;;;;15.56;51.71;100902.28;5037541;28;45364;-69
2023/01/01 02:00:56;;;;;;;;;5.00;5.00;;;;;15.59;51.76;100896.94;5023577;28;45404;-68
2023/01/01 02:03:26;;;;;;;;;5.00;5.00;;;;;15.62;51.98;100913.13;5037343;28;45329;-68
2023/01/01 02:05:52;;;;;;;;;4.33;4.33;;;;;15.61;51.70;100923.00;5021950;28;47683;-69
2023/01/01 02:08:19;;;;;;;;;6.33;5.33;;;;;15.52;52.44;100922.03;5031659;28;45329;-68
2023/01/01 02:10:45;;;;;;;;;9.33;5.33;;;;;15.52;52.26;100904.06;5025709;28;45824;-67
2023/01/01 02:13:11;;;;;;;;;4.67;4.33;;;;;15.50;52.32;100895.06;5030368;28;45472;-69
2023/01/01 02:16:20;;;;;;;;;5.00;5.00;;;;;15.60;52.60;100923.88;5025981;28;46155;-69
2023/01/01 02:19:00;;;;;;;;;9.33;7.00;;;;;15.61;52.09;100939.16;4964515;28;45504;-69
2023/01/01 02:21:32;;;;;;;;;9.67;5.67;;;;;15.42;52.48;100907.56;5029637;28;45462;-68
2023/01/01 02:24:19;;;;;;;;;8.33;7.67;;;;;15.57;52.88;100940.00;5018286;28;45555;-69
2023/01/01 02:26:53;;;;;;;;;7.00;6.00;;;;;15.53;52.93;100930.13;5029039;28;45474;-68
2023/01/01 02:29:29;;;;;;;;;5.00;5.00;;;;;15.56;52.82;100934.59;5029914;28;45595;-66
2023/01/01 02:32:04;;;;;;;;;5.67;5.67;;;;;15.54;53.26;100929.25;5033984;28;45541;-68
2023/01/01 02:34:36;;;;;;;;;11.00;6.00;;;;;15.50;53.24;100913.94;5027235;28;45561;-69
2023/01/01 02:37:06;;;;;;;;;5.67;5.67;;;;;15.54;53.49;100931.94;5027779;28;45562;-69
2023/01/01 02:39:36;;;;;;;;;9.67;7.33;;;;;15.54;53.43;100933.69;5031937;28;45600;-69
2023/01/01 02:42:06;;;;;;;;;8.00;5.67;;;;;15.53;53.66;100954.34;5003066;28;45389;-69
2023/01/01 02:44:35;;;;;;;;;6.67;6.00;;;;;15.50;53.72;100942.66;5024508;28;45512;-68
2023/01/01 02:47:11;;;;;;;;;7.67;6.00;;;;;15.46;54.06;100955.19;5024458;28;46170;-68
2023/01/01 02:49:45;;;;;;;;;5.00;5.00;;;;;15.13;53.73;100896.50;5024195;28;45487;-70
2023/01/01 02:52:31;;;;;;;;;7.67;5.00;;;;;15.40;54.02;100947.03;5028176;28;45395;-67
2023/01/01 02:55:05;;;;;;;;;9.00;5.00;;;;;15.44;53.94;100967.72;5031414;28;45249;-69
2023/01/01 02:57:40;;;;;;;;;4.00;4.00;;;;;15.40;54.30;100957.81;5042741;28;46774;-69
2023/01/01 03:00:30;;;;;;;;;10.33;5.67;;;;;15.44;54.07;100975.78;5026274;28;45440;-69
2023/01/01 03:03:22;;;;;;;;;3.67;3.67;;;;;15.29;54.31;100950.53;5031143;28;45590;-69
2023/01/01 03:06:23;;;;;;;;;4.33;4.00;;;;;15.35;54.19;100949.69;5034095;28;45458;-69
2023/01/01 03:09:25;;;;;;;;;8.00;5.33;;;;;15.33;54.70;100956.84;5030576;28;46654;-68
2023/01/01 03:12:15;;;;;;;;;8.00;5.00;;;;;15.39;54.34;100950.63;5030376;28;45406;-69
2023/01/01 03:14:56;;;;;;;;;7.33;5.00;;;;;15.27;54.65;100940.63;5032154;28;45454;-70
2023/01/01 03:17:31;;;;;;;;;8.00;6.00;;;;;15.36;54.81;100954.19;5024804;28;45455;-69
2023/01/01 03:20:00;;;;;;;;;5.67;5.00;;;;;15.23;54.67;100933.44;5030017;28;46390;-69
2023/01/01 03:22:33;;;;;;;;;7.67;6.00;;;;;15.37;54.89;100963.16;5028287;28;45386;-69
2023/01/01 03:25:13;;;;;;;;;9.00;6.67;;;;;15.32;55.35;100964.91;5030611;28;45359;-67
2023/01/01 03:27:47;;;;;;;;;7.00;7.00;;;;;15.36;54.91;100966.72;5027053;28;45593;-70
2023/01/01 03:30:15;;;;;;;;;7.33;6.00;;;;;15.30;55.09;100960.41;5035459;28;46233;-69
2023/01/01 03:33:00;;;;;;;;;5.00;5.00;;;;;15.25;55.23;100966.63;5023868;28;45913;-69
2023/01/01 03:35:34;;;;;;;;;5.00;5.00;;;;;15.35;55.29;100981.09;5022692;28;45963;-68
2023/01/01 03:38:02;;;;;;;;;9.33;6.67;;;;;15.28;55.06;100990.91;5023281;28;45358;-69
2023/01/01 03:40:32;;;;;;;;;8.00;6.00;;;;;15.20;55.16;100965.69;5030540;28;46435;-69
2023/01/01 03:43:07;;;;;;;;;7.33;4.00;;;;;15.29;55.17;100987.31;5032912;28;45517;-68
2023/01/01 03:45:38;;;;;;;;;7.00;6.67;;;;;15.24;55.44;100983.66;5030863;28;45446;-69
2023/01/01 03:48:04;;;;;;;;;6.00;6.00;;;;;15.21;55.59;100984.56;5026834;28;45426;-69
2023/01/01 03:51:01;;;;;;;;;5.00;5.00;;;;;15.10;56.18;100965.56;5031841;28;46310;-69
2023/01/01 03:53:38;;;;;;;;;5.33;5.33;;;;;15.14;55.97;100971.00;5031405;28;45489;-69
2023/01/01 03:56:12;;;;;;;;;7.00;5.67;;;;;15.26;55.86;100996.28;5032101;28;45303;-69
2023/01/01 03:58:51;;;;;;;;;3.00;2.00;;;;;15.24;55.87;101016.84;5026134;28;45494;-70
2023/01/01 04:01:32;;;;;;;;;7.33;6.67;;;;;15.17;56.38;101015.00;5025957;28;45678;-70
2023/01/01 04:04:00;;;;;;;;;6.67;6.67;;;;;15.16;56.38;100994.34;5022352;28;45450;-69
2023/01/01 04:06:25;;;;;;;;;13.33;7.67;;;;;15.17;56.13;101008.72;5033326;28;45388;-68
2023/01/01 04:08:56;;;;;;;;;5.33;5.00;;;;;15.20;56.17;101016.81;5031281;28;45320;-69
2023/01/01 04:14:10;;;;;;;;;9.67;8.00;;;;;15.19;56.64;101023.09;5025592;28;45575;-68
2023/01/01 04:16:35;;;;;;;;;6.33;4.00;;;;;15.18;56.57;101019.50;5026452;28;45288;-68
2023/01/01 04:19:05;;;;;;;;;11.00;7.00;;;;;15.01;56.84;100991.47;5024232;28;45286;-70
2023/01/01 04:21:31;;;;;;;;;11.00;10.67;;;;;15.06;57.00;101005.88;5022002;28;45564;-70
2023/01/01 04:23:57;;;;;;;;;7.67;5.33;;;;;15.07;56.80;101000.53;5022743;28;45270;-69
2023/01/01 04:26:22;;;;;;;;;5.00;5.00;;;;;15.06;56.74;101011.25;5028350;28;45285;-69
2023/01/01 04:28:47;;;;;;;;;6.00;4.00;;;;;15.16;56.93;101032.00;5031252;28;45460;-69
2023/01/01 04:31:13;;;;;;;;;5.67;5.67;;;;;15.11;57.04;101031.06;5024538;28;45418;-70
2023/01/01 04:33:38;;;;;;;;;9.33;7.33;;;;;14.73;56.47;100964.22;5030352;28;45372;-67
2023/01/01 04:36:06;;;;;;;;;6.00;5.00;;;;;15.11;57.03;101034.66;5015061;28;45802;-68
2023/01/01 04:38:33;;;;;;;;;8.00;5.00;;;;;15.09;57.41;101031.03;5023434;28;45440;-70
2023/01/01 04:41:00;;;;;;;;;5.00;5.00;;;;;15.10;57.34;101030.16;5028360;28;45561;-68
2023/01/01 04:43:25;;;;;;;;;6.00;5.33;;;;;15.10;57.27;101030.16;5034823;28;45474;-69
2023/01/01 04:46:01;;;;;;;;;7.67;4.67;;;;;15.11;57.20;101037.38;5031856;28;45435;-68
2023/01/01 04:48:28;;;;;;;;;5.33;4.33;;;;;15.09;56.70;101040.91;5021037;28;45670;-68
2023/01/01 04:50:55;;;;;;;;;6.33;5.33;;;;;15.00;57.22;101012.09;5016600;28;46168;-69
2023/01/01 04:53:21;;;;;;;;;6.67;6.33;;;;;15.08;57.32;101042.69;5028418;28;45540;-68
2023/01/01 04:55:47;;;;;;;;;6.00;5.67;;;;;15.00;57.82;101027.34;5034667;28;45290;-68
2023/01/01 04:58:12;;;;;;;;;9.00;7.00;;;;;14.85;57.86;100999.38;5029629;28;45741;-68
2023/01/01 05:00:37;;;;;;;;;6.00;5.00;;;;;15.05;57.45;101041.78;5028843;28;54544;-68
2023/01/01 05:03:03;;;;;;;;;7.00;4.67;;;;;15.01;57.91;101038.09;5027577;28;45332;-68
2023/01/01 05:05:28;;;;;;;;;6.67;5.00;;;;;15.04;58.18;101046.22;5029327;28;45310;-68
2023/01/01 05:07:53;;;;;;;;;2.00;2.00;;;;;14.98;58.22;101034.47;5029249;28;45327;-69
2023/01/01 05:10:19;;;;;;;;;7.67;7.67;;;;;15.00;58.27;101043.50;5010616;28;47866;-69
2023/01/01 05:12:44;;;;;;;;;6.33;5.33;;;;;14.90;58.27;101035.28;5028450;28;45470;-70
2023/01/01 05:15:10;;;;;;;;;4.33;4.00;;;;;14.94;58.47;101055.06;5020288;28;45852;-68
2023/01/01 05:17:35;;;;;;;;;5.67;5.33;;;;;14.82;58.83;101041.47;5032043;28;45423;-69
2023/01/01 05:20:00;;;;;;;;;5.00;5.00;;;;;15.00;58.53;101073.09;5017981;28;47331;-68
2023/01/01 05:22:26;;;;;;;;;5.00;4.00;;;;;14.91;58.75;101060.41;5018975;28;45931;-68
2023/01/01 05:24:51;;;;;;;;;10.00;7.67;;;;;14.96;58.62;101084.69;5030934;28;45367;-69
2023/01/01 05:27:16;;;;;;;;;6.33;5.00;;;;;14.95;58.65;101078.41;5019329;28;45351;-68
2023/01/01 05:29:42;;;;;;;;;6.33;5.00;;;;;14.94;58.69;101081.97;5026538;28;45735;-68
2023/01/01 05:32:07;;;;;;;;;12.00;5.67;;;;;14.93;59.03;101090.91;5001752;28;45563;-69
2023/01/01 05:34:32;;;;;;;;;5.00;5.00;;;;;14.92;59.01;101090.03;5025922;28;45589;-67
2023/01/01 05:36:58;;;;;;;;;5.67;5.67;;;;;14.94;59.25;101092.72;5027537;28;45273;-68
2023/01/01 05:39:23;;;;;;;;;7.67;4.67;;;;;14.88;59.16;101077.41;5021328;28;45606;-70
2023/01/01 05:41:50;;;;;;;;;6.00;4.67;;;;;14.91;59.39;101099.00;5030416;28;45477;-69
2023/01/01 05:44:16;;;;;;;;;4.00;4.00;;;;;14.80;59.41;101084.47;5036824;28;45467;-68
2023/01/01 05:46:41;;;;;;;;;4.00;4.00;;;;;14.86;59.33;101087.22;5036508;28;45384;-68
2023/01/01 05:49:10;;;;;;;;;8.00;5.00;;;;;14.87;59.41;101107.88;5033340;28;46107;-70
2023/01/01 05:51:35;;;;;;;;;13.00;10.00;;;;;14.85;59.67;101093.50;5027020;28;45603;-69
2023/01/01 05:54:01;;;;;;;;;7.33;6.00;;;;;14.86;59.46;101102.47;5029418;28;45602;-69
2023/01/01 05:56:27;;;;;;;;;8.00;3.33;;;;;14.81;59.56;101104.19;5027276;28;45503;-68
2023/01/01 05:58:53;;;;;;;;;5.00;3.33;;;;;14.86;59.36;101106.06;5036565;28;45891;-68
2023/01/01 06:01:22;;;;;;;;;8.00;4.00;;;;;14.82;59.47;101089.88;5025788;28;45515;-67
2023/01/01 06:03:48;;;;;;;;;5.00;3.00;;;;;14.76;59.40;101084.41;5028446;28;45708;-68
2023/01/01 06:06:17;;;;;;;;;4.33;4.33;;;;;14.87;59.36;101102.50;5028718;28;46030;-68
2023/01/01 06:08:48;;;;;;;;;5.00;4.00;;;;;14.90;59.53;101099.88;5029999;28;45428;-69
2023/01/01 06:11:14;;;;;;;;;6.67;5.00;;;;;14.85;59.53;101082.75;5029916;28;45495;-68
2023/01/01 06:13:39;;;;;;;;;9.33;6.33;;;;;14.90;59.55;101097.16;5030624;28;45289;-68
2023/01/01 06:16:05;;;;;;;;;8.00;4.67;;;;;14.71;59.52;101063.72;5020451;28;45433;-68
2023/01/01 06:18:33;;;;;;;;;4.67;4.67;;;;;14.87;59.96;101090.84;5031084;28;46389;-68
2023/01/01 06:21:12;;;;;;;;;8.33;6.00;;;;;14.85;59.93;101082.75;5022692;28;45300;-70
2023/01/01 06:23:38;;;;;;;;;6.33;5.67;;;;;14.84;59.93;101080.94;5035206;28;45555;-68
2023/01/01 06:26:08;;;;;;;;;7.33;4.00;;;;;14.81;60.05;101086.25;5024866;28;45712;-68
2023/01/01 06:28:33;;;;;;;;;5.67;5.67;;;;;14.78;60.13;101096.97;5005167;28;47183;-69
2023/01/01 06:31:03;;;;;;;;;4.00;4.00;;;;;14.78;60.03;101083.53;5034693;28;45446;-68
2023/01/01 06:33:29;;;;;;;;;10.00;4.00;;;;;14.69;59.96;101062.78;5005981;28;45544;-68
2023/01/01 06:35:54;;;;;;;;;6.67;4.00;;;;;14.79;60.06;101087.16;5023720;28;45546;-70
2023/01/01 06:38:19;;;;;;;;;9.33;4.00;;;;;14.79;60.16;101085.34;5033855;28;45514;-69
2023/01/01 06:40:55;;;;;;;;;8.00;5.00;;;;;14.81;60.35;101096.13;5027585;28;45355;-70
2023/01/01 06:43:20;;;;;;;;;7.00;4.00;;;;;14.81;60.17;101091.66;5033100;28;45483;-69
2023/01/01 06:45:46;;;;;;;;;6.33;4.67;;;;;14.81;60.38;101102.41;5026743;28;45480;-70
2023/01/01 06:48:11;;;;;;;;;3.67;3.67;;;;;14.78;60.17;101106.84;5029692;28;45985;-69
2023/01/01 06:50:36;;;;;;;;;7.00;4.00;;;;;14.80;60.35;101114.06;5029642;28;45521;-70
2023/01/01 06:53:02;;;;;;;;;7.00;4.00;;;;;14.81;60.13;101123.94;5026756;28;44912;-69
2023/01/01 06:55:27;;;;;;;;;5.00;3.67;;;;;14.81;60.25;101128.41;5032116;28;45375;-67
2023/01/01 06:57:52;;;;;;;;;5.00;3.00;;;;;14.81;60.38;101140.06;5032374;28;46063;-68
2023/01/01 07:00:18;;;;;;;;;4.00;4.00;;;;;14.80;60.52;101134.66;5028336;28;45352;-68
2023/01/01 07:02:47;;;;;;;;;6.00;5.00;;;;;14.70;60.29;101110.34;5026836;28;45491;-68
2023/01/01 07:05:12;;;;;;;;;6.33;4.00;;;;;14.80;60.68;101138.28;5029471;28;45369;-70
2023/01/01 07:07:38;;;;;;;;;5.33;5.33;;;;;14.79;60.80;101152.59;5030593;28;46625;-69
2023/01/01 07:10:03;;;;;;;;;6.00;5.00;;;;;14.77;60.54;101145.41;5029784;28;45425;-68
2023/01/01 07:12:29;;;;;;;;;6.00;4.33;;;;;14.76;60.75;101136.41;5021229;28;45585;-68
2023/01/01 07:14:54;;;;;;;;;5.67;3.67;;;;;14.76;60.97;101149.84;5026707;28;45523;-68
2023/01/01 07:17:19;;;;;;;;;3.00;3.00;;;;;14.74;60.98;101144.44;5035063;28;45645;-68
2023/01/01 07:19:45;;;;;;;;;7.67;5.00;;;;;14.70;60.95;101149.75;5028777;28;45439;-68
2023/01/01 07:22:10;;;;;;;;;3.00;3.00;;;;;14.72;60.99;101166.84;5026745;28;45324;-67
2023/01/01 07:24:37;;;;;;;;;4.00;3.67;;;;;14.72;61.21;101151.59;5024628;28;45525;-68
2023/01/01 07:27:03;;;;;;;;;3.33;3.33;;;;;14.73;60.67;101152.50;5022104;28;45532;-68
2023/01/01 07:29:28;;;;;;;;;5.00;4.67;;;;;14.71;61.29;101176.66;5033571;28;46301;-68
2023/01/01 07:31:53;;;;;;;;;6.67;4.00;;;;;14.69;61.11;101177.53;5033995;28;45604;-68
2023/01/01 07:34:22;;;;;;;;;4.00;4.00;;;;;14.57;60.95;101162.97;5024332;28;45457;-68
2023/01/01 07:36:48;;;;;;;;;3.00;3.00;;;;;14.72;61.34;101180.28;5031649;28;45509;-67
2023/01/01 07:39:13;;;;;;;;;6.00;5.67;;;;;14.69;61.52;101172.16;5031572;28;45814;-67
2023/01/01 07:41:39;;;;;;;;;6.33;3.33;;;;;14.69;61.20;101170.38;5032681;28;46197;-67
2023/01/01 07:44:04;;;;;;;;;9.00;6.33;;;;;14.76;61.37;101178.53;5028029;28;45496;-67
2023/01/01 07:46:32;;;;;;;;;4.67;4.33;;;;;14.70;61.56;101177.56;5023910;28;45562;-68
2023/01/01 07:48:57;;;;;;;;;3.00;3.00;;;;;14.69;61.50;101191.88;5033943;28;45470;-68
2023/01/01 07:51:23;;;;;;;;;4.00;3.67;;;;;14.64;61.41;101176.56;5032406;28;45483;-68
2023/01/01 07:53:48;;;;;;;;;8.00;6.00;;;;;14.71;61.44;101200.88;5031129;28;45443;-68
2023/01/01 07:56:14;;;;;;;;;5.33;5.00;;;;;14.65;61.67;101194.50;5022707;28;46047;-69
2023/01/01 07:58:40;;;;;;;;;4.00;4.00;;;;;14.64;61.18;101192.69;5029403;28;45306;-69
2023/01/01 08:01:09;;;;;;;;;7.33;4.67;;;;;14.68;61.58;101200.84;5022520;28;45294;-69
2023/01/01 08:03:34;;;;;;;;;7.33;5.33;;;;;14.76;61.58;101222.47;5003076;28;45503;-69
2023/01/01 08:06:05;;;;;;;;;5.00;2.00;;;;;14.74;61.85;101222.44;5027379;28;67155;-69
2023/01/01 08:08:30;;;;;;;;;9.00;5.00;;;;;14.69;61.59;101216.09;5021565;28;45244;-69
2023/01/01 08:11:00;;;;;;;;;7.67;4.67;;;;;14.66;61.96;101226.78;5023146;28;45497;-69
2023/01/01 08:13:25;;;;;;;;;4.67;4.33;;;;;14.72;61.78;101220.63;5027947;28;45522;-68
2023/01/01 08:15:50;;;;;;;;;5.00;4.33;;;;;14.72;61.78;101218.84;5025651;28;45494;-67
2023/01/01 08:18:16;;;;;;;;;5.00;3.33;;;;;14.77;61.60;101237.75;5026246;28;45486;-68
2023/01/01 08:20:41;;;;;;;;;6.67;3.33;;;;;14.75;61.96;101244.91;5025348;28;45598;-67
2023/01/01 08:23:06;;;;;;;;;11.33;4.00;;;;;14.73;61.71;101238.56;5025682;28;45469;-67
2023/01/01 08:25:32;;;;;;;;;7.33;3.67;;;;;14.72;61.90;101247.53;5029656;28;45243;-68
2023/01/01 08:27:57;;;;;;;;;5.00;4.00;;;;;14.77;61.69;101269.13;5025022;28;45669;-68
2023/01/01 08:30:23;;;;;;;;;8.67;2.33;;;;;14.78;61.87;101249.41;5029600;28;45239;-68
2023/01/01 08:32:48;;;;;;;;;5.67;3.00;;;;;14.67;61.56;101235.78;5022199;28;45363;-68
2023/01/01 08:35:13;;;;;;;;;5.67;4.33;;;;;14.58;61.87;101220.34;5027228;28;45686;-68
2023/01/01 08:37:39;;;;;;;;;3.00;3.00;;;;;14.60;61.68;101228.47;5031711;28;45439;-67
2023/01/01 08:40:05;;;;;;;;;5.00;4.00;;;;;14.76;61.93;101260.13;5019085;28;45688;-67
2023/01/01 08:42:30;;;;;;;;;4.00;4.00;;;;;14.70;62.31;101251.94;5035688;28;45474;-68
2023/01/01 08:44:56;;;;;;;;;10.33;4.00;;;;;14.72;62.01;101269.94;5031162;28;46941;-68
2023/01/01 08:47:25;;;;;;;;;7.33;4.33;;;;;14.69;61.97;101255.53;5030716;28;45481;-67
2023/01/01 08:49:52;;;;;;;;;4.00;4.00;;;;;14.25;62.05;101183.91;5033749;28;45383;-67
2023/01/01 08:52:17;;;;;;;;;4.33;4.00;;;;;14.72;61.77;101266.34;5020575;28;45348;-70
2023/01/01 08:54:43;;;;;;;;;6.67;3.67;;;;;14.74;61.99;101259.22;5029742;28;45542;-70
2023/01/01 08:57:10;;;;;;;;;5.00;4.00;;;;;14.74;62.21;101269.97;5024794;28;45463;-68
2023/01/01 08:59:35;;;;;;;;;5.00;4.33;;;;;14.76;62.30;101259.25;5029810;28;45409;-68
2023/01/01 09:02:00;;;;;;;;;5.33;4.00;;;;;14.74;62.00;101246.66;5021169;28;45480;-69
2023/01/01 09:04:25;;;;;;;;;3.00;3.00;;;;;14.75;61.88;101247.59;5022459;28;45328;-68
2023/01/01 09:06:51;;;;;;;;;5.00;5.00;;;;;14.76;62.01;101254.75;5032221;28;45502;-68
2023/01/01 09:09:16;;;;;;;;;9.33;5.67;;;;;14.74;62.10;101235.91;5024149;28;45582;-69
2023/01/01 09:11:57;;;;;;;;;6.67;4.00;;;;;14.77;62.21;101226.09;5034498;28;45658;-68
2023/01/01 09:14:23;;;;;;;;;5.33;4.00;;;;;14.68;62.03;101208.91;5022722;28;46250;-68
2023/01/01 09:16:49;;;;;;;;;6.00;4.33;;;;;14.74;61.76;101209.00;5026243;28;45407;-70
2023/01/01 09:19:14;;;;;;;;;6.67;6.00;;;;;14.81;61.98;101212.69;5027164;28;44815;-69
2023/01/01 09:21:39;;;;;;;;;5.33;4.00;;;;;14.67;62.11;101176.63;5023450;28;45351;-68
2023/01/01 09:24:05;;;;;;;;;5.67;4.00;;;;;14.83;62.04;101221.72;5026300;28;49728;-69
2023/01/01 09:26:30;;;;;;;;;8.67;5.00;;;;;14.80;62.01;101212.66;5024583;28;45374;-69
2023/01/01 09:28:57;;;;;;;;;8.00;6.00;;;;;14.80;62.30;101207.28;5032148;28;45837;-69
2023/01/01 09:31:23;;;;;;;;;6.00;5.00;;;;;14.53;62.07;101169.16;5030465;28;45349;-68
2023/01/01 09:33:48;;;;;;;;;8.00;6.00;;;;;14.82;62.48;101225.28;5029618;28;45431;-70
2023/01/01 09:36:26;;;;;;;;;6.00;5.33;;;;;14.83;61.99;101223.47;5006232;28;45487;-68
2023/01/01 09:38:53;;;;;;;;;5.33;5.33;;;;;14.87;62.36;101217.28;5031109;28;45478;-69
2023/01/01 09:41:43;;;;;;;;;5.00;3.67;;;;;14.89;62.19;101223.59;5030864;28;45319;-69
2023/01/01 09:44:30;;;;;;;;;10.00;7.33;;;;;14.88;62.19;101224.47;5024865;28;45564;-68
2023/01/01 09:47:00;;;;;;;;;4.67;3.67;;;;;14.84;62.02;101223.50;5025515;28;45527;-70
2023/01/01 09:49:40;;;;;;;;;5.33;4.00;;;;;14.90;62.39;101229.00;5029601;28;45505;-70
2023/01/01 09:52:12;;;;;;;;;4.00;4.00;;;;;14.90;62.28;101230.78;5017994;28;45562;-67
2023/01/01 09:54:46;;;;;;;;;4.33;4.33;;;;;14.98;62.16;101247.97;5018976;28;45568;-69
2023/01/01 09:57:12;;;;;;;;;7.00;5.00;;;;;14.99;62.04;101263.22;5019974;28;45657;-71
2023/01/01 09:59:39;;;;;;;;;3.33;3.00;;;;;14.98;61.70;101264.13;5025487;28;45297;-69
2023/01/01 10:02:28;;;;;;;;;5.00;4.00;;;;;14.99;62.07;101273.97;5027385;28;45514;-69
2023/01/01 10:05:15;;;;;;;;;4.00;4.00;;;;;15.03;62.08;101264.16;5027670;28;46707;-69
2023/01/01 10:07:49;;;;;;;;;8.67;4.33;;;;;15.02;62.01;101252.50;5033849;28;45366;-68
2023/01/01 10:10:40;;;;;;;;;5.00;3.00;;;;;15.06;62.19;101256.13;5032118;28;45589;-69
2023/01/01 10:13:33;;;;;;;;;7.00;4.33;;;;;15.06;61.91;101261.53;5031753;28;45533;-69
2023/01/01 10:16:04;;;;;;;;;6.00;5.33;;;;;15.02;61.71;101267.75;5034870;28;46180;-69
2023/01/01 10:18:34;;;;;;;;;7.67;5.67;;;;;14.97;62.01;101262.28;5024291;28;45270;-69
2023/01/01 10:21:12;;;;;;;;;4.00;3.67;;;;;15.00;62.06;101267.72;5022427;28;45566;-70
2023/01/01 10:23:52;;;;;;;;;4.33;4.00;;;;;15.00;61.91;101273.09;5030742;28;45301;-70
2023/01/01 10:26:20;;;;;;;;;5.00;5.00;;;;;14.99;62.27;101273.09;5035369;28;46347;-69
2023/01/01 10:28:53;;;;;;;;;6.67;3.00;;;;;14.86;61.88;101245.94;5022984;28;46021;-69
2023/01/01 10:31:33;;;;;;;;;7.00;4.00;;;;;14.93;62.45;101246.97;5009735;28;45553;-69
2023/01/01 10:34:11;;;;;;;;;5.00;4.00;;;;;15.02;61.93;101254.28;5033510;28;45440;-69
2023/01/01 10:36:36;;;;;;;;;9.00;5.00;;;;;15.02;62.03;101246.22;5025694;28;45541;-69
2023/01/01 10:39:03;;;;;;;;;8.00;6.67;;;;;15.01;61.88;101257.84;5035760;28;45388;-68
2023/01/01 10:41:30;;;;;;;;;8.00;6.00;;;;;15.00;61.96;101253.38;5025304;28;45494;-68
2023/01/01 10:43:56;;;;;;;;;7.67;5.33;;;;;14.96;61.71;101236.25;5031599;28;45257;-69
2023/01/01 10:46:24;;;;;;;;;7.00;6.00;;;;;14.93;62.02;101229.06;5026075;28;45417;-68
2023/01/01 10:49:11;;;;;;;;;6.00;6.00;;;;;14.93;62.04;101220.97;5002965;28;45574;-69
2023/01/01 10:51:45;;;;;;;;;9.33;6.00;;;;;15.02;61.82;101222.00;5033282;28;45291;-68
2023/01/01 10:54:32;;;;;;;;;6.67;6.00;;;;;15.01;61.75;101223.78;5010926;28;45633;-68
2023/01/01 10:56:58;;;;;;;;;6.67;5.67;;;;;14.98;61.86;101210.28;5028946;28;46334;-69
2023/01/01 10:59:40;;;;;;;;;8.00;6.00;;;;;15.00;61.74;101196.88;5025662;28;45341;-68
2023/01/01 11:02:21;;;;;;;;;9.67;4.67;;;;;15.03;61.54;101194.19;5029811;28;45250;-68
2023/01/01 11:04:47;;;;;;;;;5.33;5.33;;;;;15.05;61.58;101203.22;5035687;28;45618;-68
2023/01/01 11:07:27;;;;;;;;;8.33;7.00;;;;;15.05;61.65;101204.13;5029680;28;45968;-68
2023/01/01 11:10:00;;;;;;;;;3.67;3.67;;;;;15.06;61.68;101199.63;5025161;28;45518;-68
2023/01/01 11:12:29;;;;;;;;;8.33;7.67;;;;;15.06;61.78;101195.19;5023822;28;45367;-67
2023/01/01 11:14:57;;;;;;;;;8.00;5.67;;;;;15.09;61.71;101192.50;5025293;28;45450;-67
2023/01/01 11:17:28;;;;;;;;;8.67;6.33;;;;;15.05;61.75;101181.69;5026655;28;46203;-70
2023/01/01 11:19:56;;;;;;;;;9.00;5.33;;;;;15.01;62.12;101172.66;5051484;28;45766;-69
2023/01/01 11:22:47;;;;;;;;;6.33;5.33;;;;;15.07;62.09;101177.22;5031973;28;45387;-70
2023/01/01 11:25:26;;;;;;;;;5.00;5.00;;;;;14.99;62.11;101170.84;5025794;28;45460;-68
2023/01/01 11:28:11;;;;;;;;;9.33;8.33;;;;;15.05;61.94;101179.00;5032758;28;47138;-69
2023/01/01 11:30:37;;;;;;;;;10.00;6.67;;;;;14.66;61.81;101102.19;5026754;28;45544;-70
2023/01/01 11:33:04;;;;;;;;;11.00;7.67;;;;;15.03;61.67;101165.53;5026671;28;45355;-69
2023/01/01 11:35:36;;;;;;;;;8.00;7.00;;;;;15.02;62.02;101154.72;5022649;28;45461;-69
2023/01/01 11:38:02;;;;;;;;;9.00;8.00;;;;;14.86;62.50;101118.63;5032293;28;46675;-68